createdAt,value
2018-07-27T00:00:34.214Z,23.12
2018-07-27T00:01:34.314Z,23.14
2018-07-27T00:02:34.349Z,23.12
2018-07-27T00:03:34.366Z,23.11
2018-07-27T00:04:34.307Z,23.12
2018-07-27T00:05:34.112Z,23.11
2018-07-27T00:06:34.388Z,23.09
2018-07-27T00:07:34.330Z,23.14
2018-07-27T00:08:34.300Z,23.12
2018-07-27T00:09:34.360Z,23.11
2018-07-27T00:10:34.246Z,23.12
2018-07-27T00:11:34.248Z,23.11
2018-07-27T00:12:34.141Z,23.12
2018-07-27T00:13:34.381Z,23.11
2018-07-27T00:14:34.173Z,23.11
2018-07-27T00:15:34.267Z,23.12
2018-07-27T00:16:34.389Z,23.09
2018-07-27T00:17:34.347Z,23.12
2018-07-27T00:18:34.269Z,23.09
2018-07-27T00:19:34.129Z,23.12
2018-07-27T00:20:34.377Z,23.12
2018-07-27T00:21:34.437Z,23.11
2018-07-27T00:22:34.230Z,23.12
2018-07-27T00:23:34.173Z,23.11
2018-07-27T00:24:34.229Z,23.11
2018-07-27T00:25:34.299Z,23.11
2018-07-27T00:26:34.327Z,23.11
2018-07-27T00:27:34.170Z,23.14
2018-07-27T00:28:34.331Z,23.09
2018-07-27T00:29:34.242Z,23.09
2018-07-27T00:30:34.240Z,23.11
2018-07-27T00:31:34.398Z,23.09
2018-07-27T00:32:34.248Z,23.09
2018-07-27T00:33:34.381Z,23.09
2018-07-27T00:34:34.242Z,23.12
2018-07-27T00:35:34.385Z,23.11
2018-07-27T00:36:34.310Z,23.11
2018-07-27T00:37:34.267Z,23.12
2018-07-27T00:38:34.198Z,23.09
2018-07-27T00:39:34.480Z,23.09
2018-07-27T00:40:34.250Z,23.11
2018-07-27T00:41:34.154Z,23.11
2018-07-27T00:42:34.371Z,23.11
2018-07-27T00:43:34.392Z,23.09
2018-07-27T00:44:34.655Z,23.11
2018-07-27T00:45:34.074Z,23.09
2018-07-27T00:46:34.185Z,23.09
2018-07-27T00:47:34.118Z,23.12
2018-07-27T00:48:34.432Z,23.11
2018-07-27T00:49:34.309Z,23.08
2018-07-27T00:50:34.095Z,23.11
2018-07-27T00:51:34.224Z,23.12
2018-07-27T00:52:34.374Z,23.09
2018-07-27T00:53:34.273Z,23.09
2018-07-27T00:54:34.253Z,23.09
2018-07-27T00:55:34.152Z,23.09
2018-07-27T00:56:34.179Z,23.08
2018-07-27T00:57:34.262Z,23.11
2018-07-27T00:58:34.148Z,23.08
2018-07-27T00:59:34.118Z,23.11
2018-07-27T01:00:34.239Z,23.08
2018-07-27T01:01:34.375Z,23.09
2018-07-27T01:02:34.203Z,23.09
2018-07-27T01:03:34.133Z,23.09
2018-07-27T01:04:34.379Z,23.12
2018-07-27T01:05:34.246Z,23.11
2018-07-27T01:06:34.224Z,23.11
2018-07-27T01:07:34.319Z,23.08
2018-07-27T01:08:44.185Z,23.09
2018-07-27T01:09:34.925Z,23.09
2018-07-27T01:10:34.358Z,23.11
2018-07-27T01:11:34.445Z,23.09
2018-07-27T01:12:34.316Z,23.08
2018-07-27T01:13:34.364Z,23.11
2018-07-27T01:14:34.284Z,23.09
2018-07-27T01:15:34.112Z,23.07
2018-07-27T01:16:34.292Z,23.09
2018-07-27T01:17:34.265Z,23.07
2018-07-27T01:18:34.126Z,23.08
2018-07-27T01:19:34.616Z,23.07
2018-07-27T01:20:34.183Z,23.08
2018-07-27T01:21:34.351Z,23.08
2018-07-27T01:22:34.448Z,23.08
2018-07-27T01:23:34.347Z,23.08
2018-07-27T01:24:44.292Z,23.08
2018-07-27T01:25:34.366Z,23.07
2018-07-27T01:26:34.195Z,23.08
2018-07-27T01:27:34.333Z,23.08
2018-07-27T01:28:34.248Z,23.09
2018-07-27T01:29:34.438Z,23.08
2018-07-27T01:30:34.408Z,23.08
2018-07-27T01:31:34.309Z,23.11
2018-07-27T01:32:34.251Z,23.07
2018-07-27T01:33:34.283Z,23.07
2018-07-27T01:34:34.092Z,23.07
2018-07-27T01:35:34.326Z,23.08
2018-07-27T01:36:34.274Z,23.09
2018-07-27T01:37:34.356Z,23.08
2018-07-27T01:38:34.301Z,23.07
2018-07-27T01:39:34.353Z,23.07
2018-07-27T01:40:34.422Z,23.08
2018-07-27T01:41:34.325Z,23.08
2018-07-27T01:42:34.220Z,23.08
2018-07-27T01:43:34.210Z,23.07
2018-07-27T01:44:34.313Z,23.07
2018-07-27T01:45:34.255Z,23.07
2018-07-27T01:46:34.191Z,23.08
2018-07-27T01:47:34.305Z,23.07
2018-07-27T01:48:34.219Z,23.05
2018-07-27T01:49:34.216Z,23.08
2018-07-27T01:50:34.145Z,23.08
2018-07-27T01:51:34.265Z,23.08
2018-07-27T01:52:34.103Z,23.05
2018-07-27T01:53:34.177Z,23.05
2018-07-27T01:54:34.376Z,23.07
2018-07-27T01:55:34.186Z,23.08
2018-07-27T01:56:34.184Z,23.08
2018-07-27T01:57:34.333Z,23.07
2018-07-27T01:58:34.365Z,23.07
2018-07-27T01:59:34.210Z,23.05
2018-07-27T02:00:34.328Z,23.09
2018-07-27T02:01:34.173Z,23.05
2018-07-27T02:02:34.182Z,23.08
2018-07-27T02:03:34.417Z,23.07
2018-07-27T02:04:34.300Z,23.07
2018-07-27T02:05:34.248Z,23.05
2018-07-27T02:06:34.170Z,23.07
2018-07-27T02:07:34.264Z,23.05
2018-07-27T02:08:34.108Z,23.07
2018-07-27T02:09:34.250Z,23.05
2018-07-27T02:10:33.976Z,23.07
2018-07-27T02:11:34.210Z,23.07
2018-07-27T02:12:34.701Z,23.05
2018-07-27T02:13:34.280Z,23.03
2018-07-27T02:14:34.123Z,23.05
2018-07-27T02:15:34.233Z,23.08
2018-07-27T02:16:34.239Z,23.05
2018-07-27T02:17:34.157Z,23.05
2018-07-27T02:18:34.258Z,23.05
2018-07-27T02:19:34.087Z,23.05
2018-07-27T02:20:34.179Z,23.05
2018-07-27T02:21:34.205Z,23.05
2018-07-27T02:22:34.246Z,23.05
2018-07-27T02:23:34.930Z,23.07
2018-07-27T02:24:34.394Z,23.03
2018-07-27T02:25:34.158Z,23.05
2018-07-27T02:26:34.101Z,23.05
2018-07-27T02:27:34.374Z,23.07
2018-07-27T02:28:34.124Z,23.07
2018-07-27T02:29:34.128Z,23.08
2018-07-27T02:30:34.224Z,23.05
2018-07-27T02:31:34.509Z,23.08
2018-07-27T02:32:34.332Z,23.08
2018-07-27T02:33:34.404Z,23.02
2018-07-27T02:34:34.167Z,23.05
2018-07-27T02:35:34.320Z,23.07
2018-07-27T02:36:34.599Z,23.05
2018-07-27T02:37:34.111Z,23.07
2018-07-27T02:38:34.295Z,23.05
2018-07-27T02:39:34.166Z,23.02
2018-07-27T02:40:34.165Z,23.03
2018-07-27T02:41:34.708Z,23.03
2018-07-27T02:42:34.274Z,23.05
2018-07-27T02:43:34.206Z,23.03
2018-07-27T02:44:34.550Z,23.05
2018-07-27T02:45:34.334Z,23.05
2018-07-27T02:46:34.238Z,23.02
2018-07-27T02:47:34.509Z,23.03
2018-07-27T02:48:34.560Z,23.05
2018-07-27T02:49:34.207Z,23.05
2018-07-27T02:50:34.293Z,23.05
2018-07-27T02:51:34.126Z,23.07
2018-07-27T02:52:34.467Z,23.03
2018-07-27T02:53:34.164Z,23.03
2018-07-27T02:54:34.363Z,23.05
2018-07-27T02:55:34.055Z,23.05
2018-07-27T02:56:34.263Z,23.02
2018-07-27T02:57:34.279Z,23.02
2018-07-27T02:58:34.419Z,23.03
2018-07-27T02:59:34.293Z,23.03
2018-07-27T03:00:34.131Z,23.05
2018-07-27T03:01:34.135Z,23.02
2018-07-27T03:02:34.239Z,23.03
2018-07-27T03:03:34.401Z,23.05
2018-07-27T03:04:34.177Z,23.03
2018-07-27T03:05:34.227Z,23.07
2018-07-27T03:06:34.358Z,23.03
2018-07-27T03:07:34.289Z,23.03
2018-07-27T03:08:34.116Z,23.02
2018-07-27T03:09:35.047Z,23.05
2018-07-27T03:10:34.237Z,23.03
2018-07-27T03:11:34.212Z,23.03
2018-07-27T03:12:34.207Z,23.03
2018-07-27T03:13:34.252Z,23.05
2018-07-27T03:14:34.298Z,23.02
2018-07-27T03:15:34.299Z,23.02
2018-07-27T03:16:34.384Z,23.07
2018-07-27T03:17:34.567Z,23.03
2018-07-27T03:18:34.240Z,23.02
2018-07-27T03:19:34.650Z,23.02
2018-07-27T03:20:34.130Z,23.03
2018-07-27T03:21:34.132Z,23.03
2018-07-27T03:22:34.085Z,23.05
2018-07-27T03:23:34.227Z,23.03
2018-07-27T03:24:34.269Z,23.02
2018-07-27T03:25:34.316Z,23.03
2018-07-27T03:26:34.061Z,23.02
2018-07-27T03:27:34.283Z,23.02
2018-07-27T03:28:34.211Z,23.03
2018-07-27T03:29:34.114Z,23.05
2018-07-27T03:30:34.177Z,23.03
2018-07-27T03:31:34.166Z,23.02
2018-07-27T03:32:34.273Z,23.03
2018-07-27T03:33:34.274Z,23.07
2018-07-27T03:34:34.089Z,23.03
2018-07-27T03:35:34.389Z,23.03
2018-07-27T03:36:34.215Z,23.02
2018-07-27T03:37:34.211Z,23.02
2018-07-27T03:38:34.303Z,23.03
2018-07-27T03:39:34.178Z,23.02
2018-07-27T03:40:34.152Z,23.03
2018-07-27T03:41:34.211Z,23.02
2018-07-27T03:42:34.217Z,23.01
2018-07-27T03:43:34.329Z,23.03
2018-07-27T03:44:34.472Z,23.01
2018-07-27T03:45:34.195Z,23.02
2018-07-27T03:46:34.334Z,23.01
2018-07-27T03:47:34.206Z,23.02
2018-07-27T03:48:34.440Z,23.02
2018-07-27T03:49:34.041Z,23.01
2018-07-27T03:50:34.396Z,23.02
2018-07-27T03:51:34.156Z,22.99
2018-07-27T03:52:34.231Z,23.03
2018-07-27T03:53:34.131Z,23.03
2018-07-27T03:54:34.286Z,23.02
2018-07-27T03:55:34.565Z,23.02
2018-07-27T03:56:34.290Z,23.02
2018-07-27T03:57:34.400Z,23.01
2018-07-27T03:58:34.049Z,23.02
2018-07-27T03:59:34.264Z,23.02
2018-07-27T04:00:34.186Z,23.02
2018-07-27T04:01:34.251Z,23.01
2018-07-27T04:02:34.115Z,23.01
2018-07-27T04:03:34.342Z,22.99
2018-07-27T04:04:34.183Z,23.01
2018-07-27T04:05:34.328Z,23.01
2018-07-27T04:06:34.086Z,23.01
2018-07-27T04:07:34.059Z,23.01
2018-07-27T04:08:34.502Z,23.01
2018-07-27T04:09:34.206Z,22.99
2018-07-27T04:10:34.373Z,23.02
2018-07-27T04:11:34.290Z,23.02
2018-07-27T04:12:34.425Z,23.01
2018-07-27T04:13:34.224Z,23.01
2018-07-27T04:14:34.236Z,23.01
2018-07-27T04:15:34.402Z,23.03
2018-07-27T04:16:34.046Z,23.02
2018-07-27T04:17:34.537Z,23.01
2018-07-27T04:18:34.195Z,23.01
2018-07-27T04:19:34.491Z,23.03
2018-07-27T04:20:34.330Z,23.02
2018-07-27T04:21:34.131Z,23.01
2018-07-27T04:22:34.738Z,22.99
2018-07-27T04:23:34.107Z,22.99
2018-07-27T04:24:34.184Z,23.01
2018-07-27T04:25:34.093Z,23.01
2018-07-27T04:26:34.092Z,23.03
2018-07-27T04:27:34.185Z,22.99
2018-07-27T04:28:34.287Z,22.99
2018-07-27T04:29:34.334Z,23.01
2018-07-27T04:30:34.248Z,23.01
2018-07-27T04:31:34.259Z,23.01
2018-07-27T04:32:34.271Z,23.02
2018-07-27T04:33:34.153Z,22.99
2018-07-27T04:34:34.186Z,23.02
2018-07-27T04:35:34.427Z,22.98
2018-07-27T04:36:34.192Z,23.01
2018-07-27T04:37:34.308Z,22.99
2018-07-27T04:38:34.180Z,23.02
2018-07-27T04:39:34.145Z,23.03
2018-07-27T04:40:34.159Z,23.02
2018-07-27T04:41:34.125Z,23.01
2018-07-27T04:42:34.096Z,23.02
2018-07-27T04:43:34.002Z,23.02
2018-07-27T04:44:34.077Z,22.99
2018-07-27T04:45:34.235Z,22.99
2018-07-27T04:46:34.335Z,23.01
2018-07-27T04:47:34.258Z,22.99
2018-07-27T04:48:34.175Z,22.99
2018-07-27T04:49:34.104Z,23.01
2018-07-27T04:50:34.271Z,22.99
2018-07-27T04:51:34.129Z,22.99
2018-07-27T04:52:34.082Z,23.02
2018-07-27T04:53:34.225Z,22.99
2018-07-27T04:54:34.172Z,23.01
2018-07-27T04:55:34.089Z,23.02
2018-07-27T04:56:35.348Z,23.02
2018-07-27T04:57:34.131Z,22.99
2018-07-27T04:58:34.034Z,22.99
2018-07-27T04:59:34.279Z,23.01
2018-07-27T05:00:34.079Z,22.9
2018-07-27T05:01:34.062Z,22.74
2018-07-27T05:02:34.216Z,22.66
2018-07-27T05:03:34.176Z,22.64
2018-07-27T05:04:34.499Z,22.62
2018-07-27T05:05:34.083Z,22.59
2018-07-27T05:06:34.209Z,22.6
2018-07-27T05:07:34.344Z,22.57
2018-07-27T05:08:34.565Z,22.57
2018-07-27T05:09:34.120Z,22.54
2018-07-27T05:10:34.081Z,22.51
2018-07-27T05:11:34.261Z,22.47
2018-07-27T05:12:34.167Z,22.46
2018-07-27T05:13:34.582Z,22.44
2018-07-27T05:14:34.280Z,22.46
2018-07-27T05:15:34.216Z,22.43
2018-07-27T05:16:34.085Z,22.4
2018-07-27T05:17:34.435Z,22.39
2018-07-27T05:18:34.189Z,22.38
2018-07-27T05:19:34.061Z,22.43
2018-07-27T05:20:34.298Z,22.46
2018-07-27T05:21:34.185Z,22.43
2018-07-27T05:22:34.210Z,22.42
2018-07-27T05:23:34.052Z,22.42
2018-07-27T05:24:34.645Z,22.42
2018-07-27T05:25:34.244Z,22.49
2018-07-27T05:26:34.439Z,22.44
2018-07-27T05:27:34.197Z,22.46
2018-07-27T05:28:33.999Z,22.46
2018-07-27T05:29:34.145Z,22.49
2018-07-27T05:30:34.182Z,22.47
2018-07-27T05:31:34.515Z,22.49
2018-07-27T05:32:34.058Z,22.5
2018-07-27T05:33:34.291Z,22.53
2018-07-27T05:34:34.097Z,22.51
2018-07-27T05:35:34.101Z,22.54
2018-07-27T05:36:34.608Z,22.56
2018-07-27T05:37:34.195Z,22.56
2018-07-27T05:38:34.176Z,22.57
2018-07-27T05:39:34.103Z,22.57
2018-07-27T05:40:34.261Z,22.59
2018-07-27T05:41:34.197Z,22.59
2018-07-27T05:42:34.177Z,22.62
2018-07-27T05:43:34.142Z,22.62
2018-07-27T05:44:34.135Z,22.63
2018-07-27T05:45:34.301Z,22.63
2018-07-27T05:46:34.031Z,22.6
2018-07-27T05:47:34.202Z,22.63
2018-07-27T05:48:34.771Z,22.62
2018-07-27T05:49:34.205Z,22.64
2018-07-27T05:50:34.316Z,22.64
2018-07-27T05:51:34.212Z,22.66
2018-07-27T05:52:34.243Z,22.66
2018-07-27T05:53:34.282Z,22.66
2018-07-27T05:54:34.086Z,22.67
2018-07-27T05:55:57.524Z,22.67
2018-07-27T05:56:34.033Z,22.67
2018-07-27T05:57:34.101Z,22.64
2018-07-27T05:58:34.039Z,22.66
2018-07-27T05:59:34.138Z,22.67
2018-07-27T06:00:34.190Z,22.64
2018-07-27T06:01:34.007Z,22.67
2018-07-27T06:02:34.604Z,22.64
2018-07-27T06:03:34.047Z,22.68
2018-07-27T06:04:34.119Z,22.67
2018-07-27T06:05:34.139Z,22.66
2018-07-27T06:06:34.145Z,22.68
2018-07-27T06:07:34.057Z,22.7
2018-07-27T06:08:34.128Z,22.7
2018-07-27T06:09:34.020Z,22.7
2018-07-27T06:10:34.247Z,22.71
2018-07-27T06:11:34.217Z,22.71
2018-07-27T06:12:34.365Z,22.73
2018-07-27T06:13:34.182Z,22.73
2018-07-27T06:14:35.085Z,22.73
2018-07-27T06:15:34.148Z,22.73
2018-07-27T06:16:34.035Z,22.71
2018-07-27T06:17:34.071Z,22.73
2018-07-27T06:18:34.268Z,22.75
2018-07-27T06:19:34.164Z,22.75
2018-07-27T06:20:34.079Z,22.77
2018-07-27T06:21:34.099Z,22.77
2018-07-27T06:22:34.204Z,22.74
2018-07-27T06:23:34.340Z,22.77
2018-07-27T06:24:34.055Z,22.78
2018-07-27T06:25:34.612Z,22.78
2018-07-27T06:26:34.688Z,22.78
2018-07-27T06:27:34.305Z,22.83
2018-07-27T06:28:34.016Z,22.83
2018-07-27T06:29:34.140Z,22.83
2018-07-27T06:30:34.195Z,22.83
2018-07-27T06:31:34.134Z,22.84
2018-07-27T06:32:35.102Z,22.85
2018-07-27T06:33:34.248Z,22.88
2018-07-27T06:34:34.079Z,22.85
2018-07-27T06:35:34.140Z,22.84
2018-07-27T06:36:34.380Z,22.85
2018-07-27T06:37:34.086Z,22.88
2018-07-27T06:38:34.060Z,22.88
2018-07-27T06:39:34.250Z,22.87
2018-07-27T06:40:34.157Z,22.9
2018-07-27T06:41:34.193Z,22.87
2018-07-27T06:42:34.148Z,22.87
2018-07-27T06:43:33.970Z,22.88
2018-07-27T06:44:34.417Z,22.85
2018-07-27T06:45:34.157Z,22.87
2018-07-27T06:46:34.129Z,22.87
2018-07-27T06:47:34.176Z,22.9
2018-07-27T06:48:34.178Z,22.88
2018-07-27T06:49:34.114Z,22.9
2018-07-27T06:50:34.248Z,22.87
2018-07-27T06:51:34.204Z,22.9
2018-07-27T06:52:35.180Z,22.88
2018-07-27T06:53:34.392Z,22.9
2018-07-27T06:54:34.024Z,22.92
2018-07-27T06:55:34.303Z,22.91
2018-07-27T06:56:35.426Z,22.92
2018-07-27T06:57:34.249Z,22.88
2018-07-27T06:58:34.211Z,22.9
2018-07-27T06:59:34.084Z,22.94
2018-07-27T07:00:34.120Z,22.97
2018-07-27T07:01:33.984Z,22.97
2018-07-27T07:02:34.703Z,22.97
2018-07-27T07:03:34.698Z,22.99
2018-07-27T07:04:34.110Z,23.01
2018-07-27T07:05:34.444Z,22.98
2018-07-27T07:06:34.111Z,22.97
2018-07-27T07:07:34.070Z,22.94
2018-07-27T07:08:34.207Z,22.95
2018-07-27T07:09:34.459Z,22.97
2018-07-27T07:10:33.991Z,22.97
2018-07-27T07:11:34.066Z,22.97
2018-07-27T07:12:34.248Z,22.98
2018-07-27T07:13:34.097Z,22.97
2018-07-27T07:14:35.512Z,22.99
2018-07-27T07:15:34.163Z,23.01
2018-07-27T07:16:34.031Z,23.01
2018-07-27T07:17:34.068Z,23.05
2018-07-27T07:18:34.211Z,23.03
2018-07-27T07:19:34.033Z,23.07
2018-07-27T07:20:34.148Z,23.08
2018-07-27T07:21:34.176Z,23.05
2018-07-27T07:22:33.988Z,23.07
2018-07-27T07:23:34.182Z,23.11
2018-07-27T07:24:34.152Z,23.11
2018-07-27T07:25:35.873Z,23.11
2018-07-27T07:26:34.183Z,23.14
2018-07-27T07:27:34.068Z,23.14
2018-07-27T07:28:33.964Z,23.12
2018-07-27T07:29:34.263Z,23.12
2018-07-27T07:30:34.205Z,23.15
2018-07-27T07:31:34.288Z,23.17
2018-07-27T07:32:34.167Z,23.17
2018-07-27T07:33:34.128Z,23.17
2018-07-27T07:34:33.996Z,23.19
2018-07-27T07:35:34.137Z,23.17
2018-07-27T07:36:34.371Z,23.17
2018-07-27T07:37:33.989Z,23.15
2018-07-27T07:38:34.073Z,23.17
2018-07-27T07:39:34.123Z,23.15
2018-07-27T07:40:34.133Z,23.17
2018-07-27T07:41:34.042Z,23.17
2018-07-27T07:42:34.350Z,23.14
2018-07-27T07:43:34.033Z,23.17
2018-07-27T07:44:34.196Z,23.14
2018-07-27T07:45:33.969Z,23.14
2018-07-27T07:46:34.292Z,23.15
2018-07-27T07:47:34.160Z,23.14
2018-07-27T07:48:34.115Z,23.14
2018-07-27T07:49:34.136Z,23.17
2018-07-27T07:50:34.159Z,23.14
2018-07-27T07:51:34.441Z,23.14
2018-07-27T07:52:34.029Z,23.15
2018-07-27T07:53:34.133Z,23.14
2018-07-27T07:54:34.100Z,23.17
2018-07-27T07:55:33.993Z,23.15
2018-07-27T07:56:34.101Z,23.14
2018-07-27T07:57:34.217Z,23.14
2018-07-27T07:58:34.798Z,23.12
2018-07-27T07:59:34.213Z,23.14
2018-07-27T08:00:34.131Z,23.17
2018-07-27T08:01:34.138Z,23.18
2018-07-27T08:02:34.103Z,23.21
2018-07-27T08:03:34.227Z,23.21
2018-07-27T08:04:33.976Z,23.19
2018-07-27T08:05:34.822Z,23.22
2018-07-27T08:06:34.354Z,23.18
2018-07-27T08:07:34.372Z,23.19
2018-07-27T08:08:34.294Z,23.19
2018-07-27T08:09:34.023Z,23.21
2018-07-27T08:10:34.222Z,23.23
2018-07-27T08:11:34.365Z,23.25
2018-07-27T08:12:34.217Z,23.26
2018-07-27T08:13:34.149Z,23.26
2018-07-27T08:14:34.222Z,23.26
2018-07-27T08:15:34.073Z,23.29
2018-07-27T08:16:34.163Z,23.3
2018-07-27T08:17:34.181Z,23.29
2018-07-27T08:18:34.228Z,23.29
2018-07-27T08:19:33.952Z,23.3
2018-07-27T08:20:34.085Z,23.33
2018-07-27T08:21:34.104Z,23.36
2018-07-27T08:22:33.937Z,23.35
2018-07-27T08:23:34.095Z,23.36
2018-07-27T08:24:34.254Z,23.35
2018-07-27T08:25:33.954Z,23.36
2018-07-27T08:26:34.229Z,23.37
2018-07-27T08:27:34.237Z,23.37
2018-07-27T08:28:34.015Z,23.37
2018-07-27T08:29:33.975Z,23.4
2018-07-27T08:30:34.194Z,23.39
2018-07-27T08:31:33.974Z,23.42
2018-07-27T08:32:33.992Z,23.42
2018-07-27T08:33:34.064Z,23.43
2018-07-27T08:34:34.013Z,23.42
2018-07-27T08:35:34.078Z,23.43
2018-07-27T08:36:34.022Z,23.43
2018-07-27T08:37:34.053Z,23.43
2018-07-27T08:38:33.993Z,23.45
2018-07-27T08:39:34.373Z,23.45
2018-07-27T08:40:33.982Z,23.42
2018-07-27T08:41:34.207Z,23.43
2018-07-27T08:42:34.108Z,23.42
2018-07-27T08:43:34.042Z,23.42
2018-07-27T08:44:34.239Z,23.39
2018-07-27T08:45:34.025Z,23.33
2018-07-27T08:46:34.224Z,23.33
2018-07-27T08:47:34.091Z,23.3
2018-07-27T08:48:34.062Z,23.29
2018-07-27T08:49:33.899Z,23.28
2018-07-27T08:50:33.998Z,23.28
2018-07-27T08:51:34.458Z,23.28
2018-07-27T08:52:34.122Z,23.26
2018-07-27T08:53:34.002Z,23.25
2018-07-27T08:54:34.088Z,23.26
2018-07-27T08:55:34.152Z,23.22
2018-07-27T08:56:34.127Z,23.23
2018-07-27T08:57:34.133Z,23.23
2018-07-27T08:58:33.951Z,23.25
2018-07-27T08:59:34.042Z,23.23
2018-07-27T09:00:34.001Z,23.19
2018-07-27T09:01:34.147Z,23.21
2018-07-27T09:02:33.970Z,23.19
2018-07-27T09:03:34.125Z,23.18
2018-07-27T09:04:34.054Z,23.18
2018-07-27T09:05:34.091Z,23.18
2018-07-27T09:06:34.004Z,23.18
2018-07-27T09:07:34.060Z,23.15
2018-07-27T09:08:34.133Z,23.15
2018-07-27T09:09:34.049Z,23.17
2018-07-27T09:10:09.604Z,23.21
2018-07-27T09:11:09.336Z,23.22
2018-07-27T09:12:19.154Z,23.25
2018-07-27T09:13:09.299Z,23.21
2018-07-27T09:14:09.231Z,23.21
2018-07-27T09:15:09.314Z,23.21
2018-07-27T09:16:09.416Z,23.22
2018-07-27T09:17:09.094Z,23.23
2018-07-27T09:18:09.413Z,23.23
2018-07-27T09:19:09.255Z,23.26
2018-07-27T09:20:09.345Z,23.22
2018-07-27T09:21:09.371Z,23.26
2018-07-27T09:22:09.203Z,23.23
2018-07-27T09:23:09.541Z,23.25
2018-07-27T09:24:09.948Z,23.25
2018-07-27T09:25:13.841Z,23.23
2018-07-27T09:26:09.346Z,23.25
2018-07-27T09:27:09.430Z,23.28
2018-07-27T09:28:09.403Z,23.28
2018-07-27T09:29:09.257Z,23.26
2018-07-27T09:30:09.048Z,23.29
2018-07-27T09:31:09.243Z,23.29
2018-07-27T09:32:09.389Z,23.28
2018-07-27T09:33:22.362Z,23.3
2018-07-27T09:34:22.693Z,23.29
2018-07-27T09:35:22.698Z,23.32
2018-07-27T09:36:18.646Z,23.3
2018-07-27T09:37:18.870Z,23.3
2018-07-27T09:38:18.681Z,23.32
2018-07-27T09:39:18.656Z,23.36
2018-07-27T09:40:18.739Z,23.33
2018-07-27T09:41:18.780Z,23.36
2018-07-27T09:42:18.824Z,23.36
2018-07-27T09:43:18.856Z,23.36
2018-07-27T09:44:18.670Z,23.35
2018-07-27T09:45:18.634Z,23.33
2018-07-27T09:46:18.652Z,23.36
2018-07-27T09:47:18.642Z,23.35
2018-07-27T09:48:18.755Z,23.37
2018-07-27T09:49:18.653Z,23.36
2018-07-27T09:50:18.774Z,23.37
2018-07-27T09:51:18.674Z,23.37
2018-07-27T09:52:18.773Z,23.37
2018-07-27T09:53:18.756Z,23.39
2018-07-27T09:54:18.698Z,23.39
2018-07-27T09:55:18.820Z,23.39
2018-07-27T09:56:18.584Z,23.37
2018-07-27T09:57:18.770Z,23.4
2018-07-27T09:58:18.747Z,23.4
2018-07-27T09:59:18.931Z,23.43
2018-07-27T10:00:18.712Z,23.43
2018-07-27T10:01:18.754Z,23.4
2018-07-27T10:02:18.684Z,23.43
2018-07-27T10:03:18.796Z,23.42
2018-07-27T10:04:18.803Z,23.45
2018-07-27T10:05:18.743Z,23.42
2018-07-27T10:06:02.721Z,23.49
2018-07-27T10:07:02.889Z,23.53
2018-07-27T10:08:02.574Z,23.56
2018-07-27T10:09:02.539Z,23.6
2018-07-27T10:10:02.695Z,23.6
2018-07-27T10:11:03.363Z,23.62
2018-07-27T10:12:02.780Z,23.62
2018-07-27T10:13:02.814Z,23.64
2018-07-27T10:14:02.798Z,23.63
2018-07-27T10:15:02.617Z,23.63
2018-07-27T10:16:02.741Z,23.64
2018-07-27T10:17:02.527Z,23.63
2018-07-27T10:18:02.703Z,23.64
2018-07-27T10:19:02.872Z,23.63
2018-07-27T10:20:02.713Z,23.63
2018-07-27T10:21:02.986Z,23.64
2018-07-27T10:22:02.720Z,23.66
2018-07-27T10:23:02.739Z,23.63
2018-07-27T10:24:03.480Z,23.63
2018-07-27T10:25:02.623Z,23.57
2018-07-27T10:26:12.606Z,23.59
2018-07-27T10:27:02.739Z,23.56
2018-07-27T10:28:02.970Z,23.52
2018-07-27T10:29:02.916Z,23.52
2018-07-27T10:30:02.677Z,23.49
2018-07-27T10:31:02.897Z,23.5
2018-07-27T10:32:02.635Z,23.47
2018-07-27T10:33:02.931Z,23.46
2018-07-27T10:34:02.833Z,23.43
2018-07-27T10:35:02.698Z,23.43
2018-07-27T10:36:02.800Z,23.42
2018-07-27T10:37:03.187Z,23.39
2018-07-27T10:38:03.021Z,23.42
2018-07-27T10:39:02.721Z,23.36
2018-07-27T10:40:02.907Z,23.37
2018-07-27T10:41:02.637Z,23.37
2018-07-27T10:42:02.769Z,23.37
2018-07-27T10:43:02.674Z,23.39
2018-07-27T10:44:02.690Z,23.35
2018-07-27T10:45:02.860Z,23.35
2018-07-27T10:46:02.643Z,23.35
2018-07-27T10:47:02.865Z,23.35
2018-07-27T10:48:03.035Z,23.35
2018-07-27T10:49:02.824Z,23.33
2018-07-27T10:50:02.527Z,23.36
2018-07-27T10:51:02.717Z,23.35
2018-07-27T10:52:02.729Z,23.35
2018-07-27T10:53:02.510Z,23.35
2018-07-27T10:54:02.907Z,23.32
2018-07-27T10:55:03.154Z,23.32
2018-07-27T10:56:02.739Z,23.33
2018-07-27T10:57:02.771Z,23.32
2018-07-27T10:58:02.568Z,23.33
2018-07-27T10:59:02.839Z,23.33
2018-07-27T11:00:02.774Z,23.29
2018-07-27T11:01:02.624Z,23.3
2018-07-27T11:02:02.529Z,23.3
2018-07-27T11:03:02.746Z,23.32
2018-07-27T11:04:02.659Z,23.29
2018-07-27T11:05:02.618Z,23.28
2018-07-27T11:06:02.449Z,23.28
2018-07-27T11:07:02.777Z,23.28
2018-07-27T11:08:02.738Z,23.26
2018-07-27T11:09:02.575Z,23.29
2018-07-27T11:10:02.746Z,23.28
2018-07-27T11:11:02.647Z,23.29
2018-07-27T11:12:02.684Z,23.26
2018-07-27T11:13:02.682Z,23.26
2018-07-27T11:14:02.705Z,23.28
2018-07-27T11:15:02.553Z,23.28
2018-07-27T11:16:02.814Z,23.25
2018-07-27T11:17:02.669Z,23.28
2018-07-27T11:18:02.652Z,23.26
2018-07-27T11:19:02.688Z,23.28
2018-07-27T11:20:03.012Z,23.3
2018-07-27T11:21:02.663Z,23.33
2018-07-27T11:22:02.701Z,23.33
2018-07-27T11:23:03.060Z,23.35
2018-07-27T11:24:02.658Z,23.35
2018-07-27T11:25:02.833Z,23.37
2018-07-27T11:26:02.672Z,23.37
2018-07-27T11:27:02.719Z,23.4
2018-07-27T11:28:02.707Z,23.4
2018-07-27T11:29:02.918Z,23.43
2018-07-27T11:30:02.771Z,23.43
2018-07-27T11:31:03.437Z,23.45
2018-07-27T11:32:02.650Z,23.43
2018-07-27T11:33:02.679Z,23.45
2018-07-27T11:34:03.038Z,23.46
2018-07-27T11:35:02.945Z,23.45
2018-07-27T11:36:02.714Z,23.47
2018-07-27T11:37:03.896Z,23.46
2018-07-27T11:38:02.629Z,23.42
2018-07-27T11:39:02.776Z,23.4
2018-07-27T11:40:02.671Z,23.39
2018-07-27T11:41:02.724Z,23.39
2018-07-27T11:42:02.811Z,23.36
2018-07-27T11:43:02.646Z,23.36
2018-07-27T11:44:02.870Z,23.36
2018-07-27T11:45:02.803Z,23.35
2018-07-27T11:46:02.527Z,23.33
2018-07-27T11:47:02.590Z,23.33
2018-07-27T11:48:02.597Z,23.32
2018-07-27T11:49:02.977Z,23.33
2018-07-27T11:50:02.672Z,23.33
2018-07-27T11:51:02.760Z,23.29
2018-07-27T11:52:02.800Z,23.29
2018-07-27T11:53:02.828Z,23.29
2018-07-27T11:54:02.756Z,23.32
2018-07-27T11:55:02.976Z,23.32
2018-07-27T11:56:02.612Z,23.3
2018-07-27T11:57:03.199Z,23.29
2018-07-27T11:58:02.654Z,23.3
2018-07-27T11:59:02.735Z,23.3
2018-07-27T12:00:02.763Z,23.29
2018-07-27T12:01:02.679Z,23.29
2018-07-27T12:02:02.765Z,23.32
2018-07-27T12:03:02.594Z,23.33
2018-07-27T12:04:02.773Z,23.33
2018-07-27T12:05:02.720Z,23.36
2018-07-27T12:06:02.915Z,23.37
2018-07-27T12:07:04.031Z,23.39
2018-07-27T12:08:03.039Z,23.39
2018-07-27T12:09:03.344Z,23.39
2018-07-27T12:10:02.862Z,23.4
2018-07-27T12:11:02.837Z,23.4
2018-07-27T12:12:02.746Z,23.4
2018-07-27T12:13:02.726Z,23.42
2018-07-27T12:14:14.945Z,23.42
2018-07-27T12:15:06.059Z,23.39
2018-07-27T12:16:02.817Z,23.36
2018-07-27T12:17:02.643Z,23.35
2018-07-27T12:18:02.728Z,23.35
2018-07-27T12:19:02.689Z,23.33
2018-07-27T12:20:02.667Z,23.36
2018-07-27T12:21:04.871Z,23.36
2018-07-27T12:22:02.691Z,23.35
2018-07-27T12:23:02.737Z,23.35
2018-07-27T12:24:02.693Z,23.35
2018-07-27T12:25:02.751Z,23.33
2018-07-27T12:26:02.780Z,23.35
2018-07-27T12:27:03.515Z,23.3
2018-07-27T12:28:03.045Z,23.3
2018-07-27T12:29:02.815Z,23.33
2018-07-27T12:30:02.663Z,23.32
2018-07-27T12:31:02.879Z,23.3
2018-07-27T12:32:02.773Z,23.3
2018-07-27T12:33:02.813Z,23.32
2018-07-27T12:34:02.712Z,23.3
2018-07-27T12:35:02.636Z,23.33
2018-07-27T12:36:02.810Z,23.37
2018-07-27T12:37:02.881Z,23.35
2018-07-27T12:38:03.056Z,23.35
2018-07-27T12:39:03.814Z,23.36
2018-07-27T12:40:02.814Z,23.36
2018-07-27T12:41:03.667Z,23.36
2018-07-27T12:42:02.750Z,23.36
2018-07-27T12:43:02.571Z,23.35
2018-07-27T12:44:02.627Z,23.4
2018-07-27T12:45:03.780Z,23.4
2018-07-27T12:46:02.811Z,23.4
2018-07-27T12:47:02.760Z,23.39
2018-07-27T12:48:02.570Z,23.4
2018-07-27T12:49:02.918Z,23.4
2018-07-27T12:50:02.701Z,23.4
2018-07-27T12:51:03.121Z,23.39
2018-07-27T12:52:03.195Z,23.42
2018-07-27T12:53:02.908Z,23.45
2018-07-27T12:54:02.840Z,23.45